sensor_id;sensor_type;location;lat;lon;timestamp;P1;durP1;ratioP1;P2;durP2;ratioP2
21432;SDS011;18592;49.708;10.900;2023-07-13T00:00:54;1.23;;;1.13;;
21432;SDS011;18592;49.708;10.900;2023-07-13T00:03:04;2.38;;;1.45;;
21432;SDS011;18592;49.708;10.900;2023-07-13T00:05:05;1.60;;;1.25;;
21432;SDS011;18592;49.708;10.900;2023-07-13T00:07:06;2.25;;;1.20;;
21432;SDS011;18592;49.708;10.900;2023-07-13T00:09:07;3.00;;;1.25;;
21432;SDS011;18592;49.708;10.900;2023-07-13T00:11:08;1.50;;;1.40;;
21432;SDS011;18592;49.708;10.900;2023-07-13T00:13:10;1.75;;;1.20;;
21432;SDS011;18592;49.708;10.900;2023-07-13T00:15:15;1.67;;;1.40;;
21432;SDS011;18592;49.708;10.900;2023-07-13T00:17:23;3.45;;;1.55;;
21432;SDS011;18592;49.708;10.900;2023-07-13T00:19:24;2.38;;;1.35;;
21432;SDS011;18592;49.708;10.900;2023-07-13T00:21:40;2.90;;;1.48;;
21432;SDS011;18592;49.708;10.900;2023-07-13T00:23:42;2.42;;;1.40;;
21432;SDS011;18592;49.708;10.900;2023-07-13T00:25:42;3.15;;;1.50;;
21432;SDS011;18592;49.708;10.900;2023-07-13T00:28:03;1.75;;;1.40;;
21432;SDS011;18592;49.708;10.900;2023-07-13T00:30:04;2.63;;;1.48;;
21432;SDS011;18592;49.708;10.900;2023-07-13T00:32:06;2.45;;;1.27;;
21432;SDS011;18592;49.708;10.900;2023-07-13T00:34:40;1.65;;;1.27;;
21432;SDS011;18592;49.708;10.900;2023-07-13T00:36:52;1.17;;;1.08;;
21432;SDS011;18592;49.708;10.900;2023-07-13T00:38:54;1.73;;;1.40;;
21432;SDS011;18592;49.708;10.900;2023-07-13T00:41:03;1.45;;;1.33;;
21432;SDS011;18592;49.708;10.900;2023-07-13T00:43:13;2.00;;;1.33;;
21432;SDS011;18592;49.708;10.900;2023-07-13T00:47:24;1.80;;;1.30;;
21432;SDS011;18592;49.708;10.900;2023-07-13T00:49:27;1.50;;;1.30;;
21432;SDS011;18592;49.708;10.900;2023-07-13T00:51:44;1.40;;;1.23;;
21432;SDS011;18592;49.708;10.900;2023-07-13T00:53:50;1.90;;;1.40;;
21432;SDS011;18592;49.708;10.900;2023-07-13T00:56:08;1.92;;;1.40;;
21432;SDS011;18592;49.708;10.900;2023-07-13T00:58:20;1.65;;;1.40;;
21432;SDS011;18592;49.708;10.900;2023-07-13T01:11:18;1.60;;;1.20;;
21432;SDS011;18592;49.708;10.900;2023-07-13T01:13:22;1.42;;;1.30;;
21432;SDS011;18592;49.708;10.900;2023-07-13T01:17:44;1.40;;;1.30;;
21432;SDS011;18592;49.708;10.900;2023-07-13T01:20:00;1.45;;;1.25;;
21432;SDS011;18592;49.708;10.900;2023-07-13T01:22:06;2.80;;;1.40;;
21432;SDS011;18592;49.708;10.900;2023-07-13T01:24:18;1.75;;;1.20;;
21432;SDS011;18592;49.708;10.900;2023-07-13T01:26:19;1.88;;;1.40;;
21432;SDS011;18592;49.708;10.900;2023-07-13T01:28:21;1.33;;;1.00;;
21432;SDS011;18592;49.708;10.900;2023-07-13T01:30:22;1.98;;;1.25;;
21432;SDS011;18592;49.708;10.900;2023-07-13T01:32:23;1.45;;;1.35;;
21432;SDS011;18592;49.708;10.900;2023-07-13T01:34:27;1.33;;;1.23;;
21432;SDS011;18592;49.708;10.900;2023-07-13T01:36:27;1.80;;;1.40;;
21432;SDS011;18592;49.708;10.900;2023-07-13T01:38:28;2.45;;;1.50;;
21432;SDS011;18592;49.708;10.900;2023-07-13T01:40:28;1.20;;;1.10;;
21432;SDS011;18592;49.708;10.900;2023-07-13T01:42:31;2.25;;;1.42;;
21432;SDS011;18592;49.708;10.900;2023-07-13T01:44:31;2.35;;;1.30;;
21432;SDS011;18592;49.708;10.900;2023-07-13T01:46:31;1.58;;;1.33;;
21432;SDS011;18592;49.708;10.900;2023-07-13T01:48:32;1.70;;;1.40;;
21432;SDS011;18592;49.708;10.900;2023-07-13T01:50:33;1.95;;;1.50;;
21432;SDS011;18592;49.708;10.900;2023-07-13T01:52:33;2.30;;;1.33;;
21432;SDS011;18592;49.708;10.900;2023-07-13T01:54:34;1.85;;;1.30;;
21432;SDS011;18592;49.708;10.900;2023-07-13T01:56:34;1.58;;;1.35;;
21432;SDS011;18592;49.708;10.900;2023-07-13T01:58:35;1.50;;;1.13;;
21432;SDS011;18592;49.708;10.900;2023-07-13T02:00:35;2.88;;;1.23;;
21432;SDS011;18592;49.708;10.900;2023-07-13T02:02:36;3.15;;;1.40;;
21432;SDS011;18592;49.708;10.900;2023-07-13T02:04:36;1.55;;;1.23;;
21432;SDS011;18592;49.708;10.900;2023-07-13T02:06:46;1.83;;;1.20;;
21432;SDS011;18592;49.708;10.900;2023-07-13T02:08:46;3.05;;;1.45;;
21432;SDS011;18592;49.708;10.900;2023-07-13T02:10:46;2.05;;;1.30;;
21432;SDS011;18592;49.708;10.900;2023-07-13T02:12:48;1.48;;;1.30;;
21432;SDS011;18592;49.708;10.900;2023-07-13T02:14:50;1.67;;;1.25;;
21432;SDS011;18592;49.708;10.900;2023-07-13T02:16:50;2.22;;;1.42;;
21432;SDS011;18592;49.708;10.900;2023-07-13T02:18:52;2.47;;;1.20;;
21432;SDS011;18592;49.708;10.900;2023-07-13T02:20:56;1.70;;;1.08;;
21432;SDS011;18592;49.708;10.900;2023-07-13T02:33:48;1.67;;;1.58;;
21432;SDS011;18592;49.708;10.900;2023-07-13T02:36:00;1.77;;;1.33;;
21432;SDS011;18592;49.708;10.900;2023-07-13T02:38:01;2.20;;;1.40;;
21432;SDS011;18592;49.708;10.900;2023-07-13T02:40:01;1.60;;;1.30;;
21432;SDS011;18592;49.708;10.900;2023-07-13T02:42:08;1.80;;;1.20;;
21432;SDS011;18592;49.708;10.900;2023-07-13T02:44:08;1.88;;;1.45;;
21432;SDS011;18592;49.708;10.900;2023-07-13T02:46:09;3.15;;;1.40;;
21432;SDS011;18592;49.708;10.900;2023-07-13T02:48:09;2.13;;;1.48;;
21432;SDS011;18592;49.708;10.900;2023-07-13T02:50:10;1.35;;;1.13;;
21432;SDS011;18592;49.708;10.900;2023-07-13T02:52:10;1.60;;;1.20;;
21432;SDS011;18592;49.708;10.900;2023-07-13T02:54:10;2.20;;;1.50;;
21432;SDS011;18592;49.708;10.900;2023-07-13T02:56:13;1.95;;;1.15;;
21432;SDS011;18592;49.708;10.900;2023-07-13T02:58:14;1.70;;;1.50;;
21432;SDS011;18592;49.708;10.900;2023-07-13T03:00:17;2.38;;;1.35;;
21432;SDS011;18592;49.708;10.900;2023-07-13T03:02:18;2.63;;;1.55;;
21432;SDS011;18592;49.708;10.900;2023-07-13T03:04:22;2.00;;;1.50;;
21432;SDS011;18592;49.708;10.900;2023-07-13T03:06:22;2.15;;;1.50;;
21432;SDS011;18592;49.708;10.900;2023-07-13T03:08:27;2.30;;;1.35;;
21432;SDS011;18592;49.708;10.900;2023-07-13T03:10:28;1.83;;;1.42;;
21432;SDS011;18592;49.708;10.900;2023-07-13T03:12:29;3.97;;;1.40;;
21432;SDS011;18592;49.708;10.900;2023-07-13T03:14:32;1.65;;;1.20;;
21432;SDS011;18592;49.708;10.900;2023-07-13T03:16:34;2.13;;;1.40;;
21432;SDS011;18592;49.708;10.900;2023-07-13T03:18:35;1.40;;;1.10;;
21432;SDS011;18592;49.708;10.900;2023-07-13T03:20:39;1.40;;;1.27;;
21432;SDS011;18592;49.708;10.900;2023-07-13T03:22:41;2.00;;;1.27;;
21432;SDS011;18592;49.708;10.900;2023-07-13T03:24:42;2.63;;;1.10;;
21432;SDS011;18592;49.708;10.900;2023-07-13T03:26:44;2.03;;;1.13;;
21432;SDS011;18592;49.708;10.900;2023-07-13T03:28:44;1.20;;;1.10;;
21432;SDS011;18592;49.708;10.900;2023-07-13T03:30:52;1.73;;;1.27;;
21432;SDS011;18592;49.708;10.900;2023-07-13T03:32:59;2.20;;;1.30;;
21432;SDS011;18592;49.708;10.900;2023-07-13T03:35:08;1.73;;;1.08;;
21432;SDS011;18592;49.708;10.900;2023-07-13T03:37:10;2.22;;;1.33;;
21432;SDS011;18592;49.708;10.900;2023-07-13T03:39:25;1.80;;;1.33;;
21432;SDS011;18592;49.708;10.900;2023-07-13T03:41:34;1.63;;;1.27;;
21432;SDS011;18592;49.708;10.900;2023-07-13T03:43:34;1.05;;;0.95;;
21432;SDS011;18592;49.708;10.900;2023-07-13T03:45:34;1.83;;;1.30;;
21432;SDS011;18592;49.708;10.900;2023-07-13T03:47:38;2.47;;;1.30;;
21432;SDS011;18592;49.708;10.900;2023-07-13T03:49:38;1.65;;;1.05;;
21432;SDS011;18592;49.708;10.900;2023-07-13T03:51:39;1.75;;;1.30;;
21432;SDS011;18592;49.708;10.900;2023-07-13T03:53:41;3.70;;;1.40;;
21432;SDS011;18592;49.708;10.900;2023-07-13T03:55:44;4.22;;;1.33;;
21432;SDS011;18592;49.708;10.900;2023-07-13T03:57:45;1.50;;;1.20;;
21432;SDS011;18592;49.708;10.900;2023-07-13T03:59:45;1.67;;;1.20;;
21432;SDS011;18592;49.708;10.900;2023-07-13T04:01:45;1.65;;;1.30;;
21432;SDS011;18592;49.708;10.900;2023-07-13T04:03:56;2.08;;;1.20;;
21432;SDS011;18592;49.708;10.900;2023-07-13T04:06:01;2.22;;;1.13;;
21432;SDS011;18592;49.708;10.900;2023-07-13T04:08:03;2.10;;;1.27;;
21432;SDS011;18592;49.708;10.900;2023-07-13T04:10:07;1.50;;;1.20;;
21432;SDS011;18592;49.708;10.900;2023-07-13T04:12:15;1.75;;;1.30;;
21432;SDS011;18592;49.708;10.900;2023-07-13T04:14:16;1.95;;;1.17;;
21432;SDS011;18592;49.708;10.900;2023-07-13T04:16:17;1.55;;;1.15;;
21432;SDS011;18592;49.708;10.900;2023-07-13T04:18:19;1.63;;;1.38;;
21432;SDS011;18592;49.708;10.900;2023-07-13T04:20:20;3.42;;;1.17;;
21432;SDS011;18592;49.708;10.900;2023-07-13T04:22:21;3.40;;;1.17;;
21432;SDS011;18592;49.708;10.900;2023-07-13T04:24:22;1.30;;;1.20;;
21432;SDS011;18592;49.708;10.900;2023-07-13T04:26:22;3.03;;;1.05;;
21432;SDS011;18592;49.708;10.900;2023-07-13T04:28:23;1.35;;;1.00;;
21432;SDS011;18592;49.708;10.900;2023-07-13T04:30:25;1.52;;;1.15;;
21432;SDS011;18592;49.708;10.900;2023-07-13T04:32:26;1.15;;;1.00;;
21432;SDS011;18592;49.708;10.900;2023-07-13T04:34:27;2.10;;;1.13;;
21432;SDS011;18592;49.708;10.900;2023-07-13T04:36:28;2.10;;;1.08;;
21432;SDS011;18592;49.708;10.900;2023-07-13T04:38:29;2.85;;;1.00;;
21432;SDS011;18592;49.708;10.900;2023-07-13T04:40:30;1.70;;;1.17;;
21432;SDS011;18592;49.708;10.900;2023-07-13T04:42:31;1.73;;;1.10;;
21432;SDS011;18592;49.708;10.900;2023-07-13T04:44:39;1.75;;;1.33;;
21432;SDS011;18592;49.708;10.900;2023-07-13T04:46:39;1.60;;;1.23;;
21432;SDS011;18592;49.708;10.900;2023-07-13T04:48:40;1.50;;;1.05;;
21432;SDS011;18592;49.708;10.900;2023-07-13T04:50:41;2.63;;;1.40;;
21432;SDS011;18592;49.708;10.900;2023-07-13T04:52:41;1.92;;;1.25;;
21432;SDS011;18592;49.708;10.900;2023-07-13T04:54:42;1.42;;;1.10;;
21432;SDS011;18592;49.708;10.900;2023-07-13T04:56:42;3.85;;;1.10;;
21432;SDS011;18592;49.708;10.900;2023-07-13T04:58:43;2.60;;;1.30;;
21432;SDS011;18592;49.708;10.900;2023-07-13T05:00:49;1.88;;;1.30;;
21432;SDS011;18592;49.708;10.900;2023-07-13T05:02:55;1.77;;;1.27;;
21432;SDS011;18592;49.708;10.900;2023-07-13T05:04:57;2.58;;;1.17;;
21432;SDS011;18592;49.708;10.900;2023-07-13T05:06:58;1.92;;;1.27;;
21432;SDS011;18592;49.708;10.900;2023-07-13T05:08:59;2.08;;;1.38;;
21432;SDS011;18592;49.708;10.900;2023-07-13T05:11:00;1.90;;;1.30;;
21432;SDS011;18592;49.708;10.900;2023-07-13T05:13:01;1.90;;;1.35;;
21432;SDS011;18592;49.708;10.900;2023-07-13T05:15:03;1.40;;;1.15;;
21432;SDS011;18592;49.708;10.900;2023-07-13T05:17:04;1.17;;;1.05;;
21432;SDS011;18592;49.708;10.900;2023-07-13T05:19:05;2.40;;;1.20;;
21432;SDS011;18592;49.708;10.900;2023-07-13T05:21:07;5.13;;;1.25;;
21432;SDS011;18592;49.708;10.900;2023-07-13T05:23:09;2.65;;;1.30;;
21432;SDS011;18592;49.708;10.900;2023-07-13T05:25:27;1.52;;;1.02;;
21432;SDS011;18592;49.708;10.900;2023-07-13T05:27:27;2.20;;;1.40;;
21432;SDS011;18592;49.708;10.900;2023-07-13T05:29:27;2.40;;;1.13;;
21432;SDS011;18592;49.708;10.900;2023-07-13T05:31:28;2.55;;;1.33;;
21432;SDS011;18592;49.708;10.900;2023-07-13T05:33:28;2.20;;;1.20;;
21432;SDS011;18592;49.708;10.900;2023-07-13T05:35:29;2.38;;;1.23;;
21432;SDS011;18592;49.708;10.900;2023-07-13T05:37:29;2.75;;;1.23;;
21432;SDS011;18592;49.708;10.900;2023-07-13T05:39:29;1.60;;;1.23;;
21432;SDS011;18592;49.708;10.900;2023-07-13T05:41:30;3.05;;;1.35;;
21432;SDS011;18592;49.708;10.900;2023-07-13T05:43:30;2.40;;;1.10;;
21432;SDS011;18592;49.708;10.900;2023-07-13T05:45:42;1.75;;;1.00;;
21432;SDS011;18592;49.708;10.900;2023-07-13T05:47:43;2.53;;;1.20;;
21432;SDS011;18592;49.708;10.900;2023-07-13T05:49:44;2.78;;;1.08;;
21432;SDS011;18592;49.708;10.900;2023-07-13T05:51:45;2.35;;;1.10;;
21432;SDS011;18592;49.708;10.900;2023-07-13T05:53:45;2.78;;;1.13;;
21432;SDS011;18592;49.708;10.900;2023-07-13T06:06:39;3.80;;;1.20;;
21432;SDS011;18592;49.708;10.900;2023-07-13T06:08:43;1.80;;;0.90;;
21432;SDS011;18592;49.708;10.900;2023-07-13T06:10:48;2.63;;;1.20;;
21432;SDS011;18592;49.708;10.900;2023-07-13T06:12:51;1.25;;;1.10;;
21432;SDS011;18592;49.708;10.900;2023-07-13T06:14:51;1.52;;;1.10;;
21432;SDS011;18592;49.708;10.900;2023-07-13T06:16:52;1.30;;;0.90;;
21432;SDS011;18592;49.708;10.900;2023-07-13T06:18:52;1.58;;;1.00;;
21432;SDS011;18592;49.708;10.900;2023-07-13T06:20:53;1.75;;;1.00;;
21432;SDS011;18592;49.708;10.900;2023-07-13T06:22:53;1.77;;;1.10;;
21432;SDS011;18592;49.708;10.900;2023-07-13T06:24:53;2.30;;;1.20;;
21432;SDS011;18592;49.708;10.900;2023-07-13T06:26:54;2.65;;;1.10;;
21432;SDS011;18592;49.708;10.900;2023-07-13T06:28:54;2.28;;;0.93;;
21432;SDS011;18592;49.708;10.900;2023-07-13T06:30:55;1.80;;;0.90;;
21432;SDS011;18592;49.708;10.900;2023-07-13T06:33:05;1.60;;;0.90;;
21432;SDS011;18592;49.708;10.900;2023-07-13T06:35:20;1.77;;;1.30;;
21432;SDS011;18592;49.708;10.900;2023-07-13T06:37:20;2.33;;;1.70;;
21432;SDS011;18592;49.708;10.900;2023-07-13T06:39:21;2.97;;;1.83;;
21432;SDS011;18592;49.708;10.900;2023-07-13T06:41:21;2.65;;;1.70;;
21432;SDS011;18592;49.708;10.900;2023-07-13T06:43:23;3.58;;;1.73;;
21432;SDS011;18592;49.708;10.900;2023-07-13T06:45:25;3.83;;;2.00;;
21432;SDS011;18592;49.708;10.900;2023-07-13T06:47:25;2.38;;;1.70;;
21432;SDS011;18592;49.708;10.900;2023-07-13T06:49:26;2.53;;;1.80;;
21432;SDS011;18592;49.708;10.900;2023-07-13T06:51:26;2.13;;;1.60;;
21432;SDS011;18592;49.708;10.900;2023-07-13T06:53:27;2.50;;;1.50;;
21432;SDS011;18592;49.708;10.900;2023-07-13T06:55:43;2.03;;;1.33;;
21432;SDS011;18592;49.708;10.900;2023-07-13T06:57:45;1.65;;;1.23;;
21432;SDS011;18592;49.708;10.900;2023-07-13T06:59:45;1.73;;;1.10;;
21432;SDS011;18592;49.708;10.900;2023-07-13T07:01:46;2.30;;;1.38;;
21432;SDS011;18592;49.708;10.900;2023-07-13T07:03:55;2.20;;;1.38;;
21432;SDS011;18592;49.708;10.900;2023-07-13T07:06:03;1.98;;;1.20;;
21432;SDS011;18592;49.708;10.900;2023-07-13T07:08:12;4.30;;;1.10;;
21432;SDS011;18592;49.708;10.900;2023-07-13T07:10:12;3.22;;;1.23;;
21432;SDS011;18592;49.708;10.900;2023-07-13T07:12:12;2.85;;;1.30;;
21432;SDS011;18592;49.708;10.900;2023-07-13T07:14:13;2.17;;;1.20;;
21432;SDS011;18592;49.708;10.900;2023-07-13T07:16:15;3.47;;;1.20;;
21432;SDS011;18592;49.708;10.900;2023-07-13T07:18:16;2.28;;;1.20;;
21432;SDS011;18592;49.708;10.900;2023-07-13T07:20:17;1.88;;;1.20;;
21432;SDS011;18592;49.708;10.900;2023-07-13T07:22:17;1.73;;;1.30;;
21432;SDS011;18592;49.708;10.900;2023-07-13T07:24:17;2.28;;;1.38;;
21432;SDS011;18592;49.708;10.900;2023-07-13T07:26:18;2.45;;;1.17;;
21432;SDS011;18592;49.708;10.900;2023-07-13T07:28:32;2.28;;;1.30;;
21432;SDS011;18592;49.708;10.900;2023-07-13T07:30:48;1.42;;;1.10;;
21432;SDS011;18592;49.708;10.900;2023-07-13T07:33:13;1.83;;;1.25;;
21432;SDS011;18592;49.708;10.900;2023-07-13T07:35:14;2.08;;;1.10;;
21432;SDS011;18592;49.708;10.900;2023-07-13T07:37:16;1.60;;;1.00;;
21432;SDS011;18592;49.708;10.900;2023-07-13T07:39:16;1.23;;;0.90;;
21432;SDS011;18592;49.708;10.900;2023-07-13T07:41:16;2.78;;;1.30;;
21432;SDS011;18592;49.708;10.900;2023-07-13T07:43:21;1.65;;;1.00;;
21432;SDS011;18592;49.708;10.900;2023-07-13T07:45:21;1.58;;;0.90;;
21432;SDS011;18592;49.708;10.900;2023-07-13T07:47:22;1.45;;;1.00;;
21432;SDS011;18592;49.708;10.900;2023-07-13T07:49:33;1.80;;;1.10;;
21432;SDS011;18592;49.708;10.900;2023-07-13T07:51:43;2.70;;;1.08;;
21432;SDS011;18592;49.708;10.900;2023-07-13T07:53:44;1.25;;;0.90;;
21432;SDS011;18592;49.708;10.900;2023-07-13T07:55:44;2.03;;;1.10;;
21432;SDS011;18592;49.708;10.900;2023-07-13T07:57:45;2.05;;;0.93;;
21432;SDS011;18592;49.708;10.900;2023-07-13T07:59:45;2.45;;;1.20;;
21432;SDS011;18592;49.708;10.900;2023-07-13T08:01:46;1.50;;;1.10;;
21432;SDS011;18592;49.708;10.900;2023-07-13T08:03:50;2.03;;;1.00;;
21432;SDS011;18592;49.708;10.900;2023-07-13T08:05:53;2.00;;;1.23;;
21432;SDS011;18592;49.708;10.900;2023-07-13T08:07:54;3.05;;;0.90;;
21432;SDS011;18592;49.708;10.900;2023-07-13T08:09:54;2.35;;;1.00;;
21432;SDS011;18592;49.708;10.900;2023-07-13T08:11:54;2.38;;;0.93;;
21432;SDS011;18592;49.708;10.900;2023-07-13T08:13:55;1.55;;;1.00;;
21432;SDS011;18592;49.708;10.900;2023-07-13T08:15:55;1.55;;;0.98;;
21432;SDS011;18592;49.708;10.900;2023-07-13T08:17:56;3.15;;;1.40;;
21432;SDS011;18592;49.708;10.900;2023-07-13T08:19:56;2.05;;;1.30;;
21432;SDS011;18592;49.708;10.900;2023-07-13T08:21:56;2.00;;;1.25;;
21432;SDS011;18592;49.708;10.900;2023-07-13T08:23:59;2.38;;;1.50;;
21432;SDS011;18592;49.708;10.900;2023-07-13T08:25:59;3.13;;;1.35;;
21432;SDS011;18592;49.708;10.900;2023-07-13T08:28:02;1.73;;;1.30;;
21432;SDS011;18592;49.708;10.900;2023-07-13T08:30:09;2.85;;;1.40;;
21432;SDS011;18592;49.708;10.900;2023-07-13T08:32:10;2.08;;;1.30;;
21432;SDS011;18592;49.708;10.900;2023-07-13T08:34:11;1.85;;;1.27;;
21432;SDS011;18592;49.708;10.900;2023-07-13T08:36:11;1.83;;;1.27;;
21432;SDS011;18592;49.708;10.900;2023-07-13T08:38:11;1.92;;;1.40;;
21432;SDS011;18592;49.708;10.900;2023-07-13T08:40:12;2.00;;;1.25;;
21432;SDS011;18592;49.708;10.900;2023-07-13T08:44:39;2.00;;;1.35;;
21432;SDS011;18592;49.708;10.900;2023-07-13T08:46:49;1.85;;;1.35;;
21432;SDS011;18592;49.708;10.900;2023-07-13T08:49:12;2.67;;;1.45;;
21432;SDS011;18592;49.708;10.900;2023-07-13T08:53:21;2.95;;;1.50;;
21432;SDS011;18592;49.708;10.900;2023-07-13T08:55:30;2.97;;;1.77;;
21432;SDS011;18592;49.708;10.900;2023-07-13T08:57:36;2.72;;;1.70;;
21432;SDS011;18592;49.708;10.900;2023-07-13T08:59:40;4.25;;;1.80;;
21432;SDS011;18592;49.708;10.900;2023-07-13T09:01:47;4.93;;;1.95;;
21432;SDS011;18592;49.708;10.900;2023-07-13T09:04:08;2.83;;;1.85;;
21432;SDS011;18592;49.708;10.900;2023-07-13T09:06:16;3.40;;;2.00;;
21432;SDS011;18592;49.708;10.900;2023-07-13T09:08:56;2.72;;;1.63;;
21432;SDS011;18592;49.708;10.900;2023-07-13T09:11:23;2.40;;;1.88;;
21432;SDS011;18592;49.708;10.900;2023-07-13T09:13:43;2.40;;;1.65;;
21432;SDS011;18592;49.708;10.900;2023-07-13T09:15:48;2.10;;;1.20;;
21432;SDS011;18592;49.708;10.900;2023-07-13T09:17:51;1.60;;;1.20;;
21432;SDS011;18592;49.708;10.900;2023-07-13T09:20:10;2.92;;;1.42;;
21432;SDS011;18592;49.708;10.900;2023-07-13T09:22:34;1.45;;;0.90;;
21432;SDS011;18592;49.708;10.900;2023-07-13T09:24:39;1.02;;;1.00;;
21432;SDS011;18592;49.708;10.900;2023-07-13T09:26:47;1.00;;;0.90;;
21432;SDS011;18592;49.708;10.900;2023-07-13T09:28:49;1.55;;;1.10;;
21432;SDS011;18592;49.708;10.900;2023-07-13T09:31:14;1.10;;;0.90;;
21432;SDS011;18592;49.708;10.900;2023-07-13T09:33:17;1.42;;;1.00;;
21432;SDS011;18592;49.708;10.900;2023-07-13T09:35:21;1.17;;;1.00;;
21432;SDS011;18592;49.708;10.900;2023-07-13T09:37:27;1.08;;;0.95;;
21432;SDS011;18592;49.708;10.900;2023-07-13T09:39:35;1.70;;;1.17;;
21432;SDS011;18592;49.708;10.900;2023-07-13T09:44:11;1.15;;;1.05;;
21432;SDS011;18592;49.708;10.900;2023-07-13T09:46:22;1.75;;;1.25;;
21432;SDS011;18592;49.708;10.900;2023-07-13T09:48:22;1.13;;;0.95;;
21432;SDS011;18592;49.708;10.900;2023-07-13T09:50:24;2.05;;;1.00;;
21432;SDS011;18592;49.708;10.900;2023-07-13T09:52:25;1.35;;;1.10;;
21432;SDS011;18592;49.708;10.900;2023-07-13T09:54:27;2.25;;;1.25;;
21432;SDS011;18592;49.708;10.900;2023-07-13T09:56:28;1.20;;;1.10;;
21432;SDS011;18592;49.708;10.900;2023-07-13T09:58:30;0.90;;;0.90;;
21432;SDS011;18592;49.708;10.900;2023-07-13T10:00:33;1.70;;;1.10;;
21432;SDS011;18592;49.708;10.900;2023-07-13T10:02:34;1.25;;;0.90;;
21432;SDS011;18592;49.708;10.900;2023-07-13T10:04:37;1.23;;;0.90;;
21432;SDS011;18592;49.708;10.900;2023-07-13T10:06:38;1.60;;;1.10;;
21432;SDS011;18592;49.708;10.900;2023-07-13T10:08:56;1.15;;;1.02;;
21432;SDS011;18592;49.708;10.900;2023-07-13T10:11:00;2.95;;;0.95;;
21432;SDS011;18592;49.708;10.900;2023-07-13T10:15:45;2.83;;;1.00;;
21432;SDS011;18592;49.708;10.900;2023-07-13T10:17:46;1.67;;;1.05;;
21432;SDS011;18592;49.708;10.900;2023-07-13T10:19:47;1.35;;;1.00;;
21432;SDS011;18592;49.708;10.900;2023-07-13T10:21:57;1.77;;;1.30;;
21432;SDS011;18592;49.708;10.900;2023-07-13T10:26:19;1.80;;;1.40;;
21432;SDS011;18592;49.708;10.900;2023-07-13T10:28:27;2.15;;;1.30;;
21432;SDS011;18592;49.708;10.900;2023-07-13T10:30:32;1.55;;;1.20;;
21432;SDS011;18592;49.708;10.900;2023-07-13T10:32:35;2.42;;;1.38;;
21432;SDS011;18592;49.708;10.900;2023-07-13T10:34:36;3.95;;;1.30;;
21432;SDS011;18592;49.708;10.900;2023-07-13T10:36:43;1.90;;;1.20;;
21432;SDS011;18592;49.708;10.900;2023-07-13T10:38:45;1.98;;;1.20;;
21432;SDS011;18592;49.708;10.900;2023-07-13T10:40:55;1.33;;;1.17;;
21432;SDS011;18592;49.708;10.900;2023-07-13T10:43:02;1.45;;;1.02;;
21432;SDS011;18592;49.708;10.900;2023-07-13T10:45:12;1.50;;;1.02;;
21432;SDS011;18592;49.708;10.900;2023-07-13T10:47:15;1.45;;;0.90;;
21432;SDS011;18592;49.708;10.900;2023-07-13T10:49:18;2.00;;;1.20;;
21432;SDS011;18592;49.708;10.900;2023-07-13T10:51:19;4.65;;;1.17;;
21432;SDS011;18592;49.708;10.900;2023-07-13T10:58:01;1.55;;;1.00;;
21432;SDS011;18592;49.708;10.900;2023-07-13T11:00:14;1.80;;;1.00;;
21432;SDS011;18592;49.708;10.900;2023-07-13T11:02:23;0.88;;;0.88;;
21432;SDS011;18592;49.708;10.900;2023-07-13T11:04:26;1.00;;;0.88;;
21432;SDS011;18592;49.708;10.900;2023-07-13T11:06:33;1.92;;;1.20;;
21432;SDS011;18592;49.708;10.900;2023-07-13T11:10:55;2.65;;;1.20;;
21432;SDS011;18592;49.708;10.900;2023-07-13T11:12:56;1.52;;;1.20;;
21432;SDS011;18592;49.708;10.900;2023-07-13T11:19:29;1.92;;;1.10;;
21432;SDS011;18592;49.708;10.900;2023-07-13T11:24:14;1.73;;;1.30;;
21432;SDS011;18592;49.708;10.900;2023-07-13T11:28:41;1.58;;;0.95;;
21432;SDS011;18592;49.708;10.900;2023-07-13T11:35:12;2.95;;;1.08;;
21432;SDS011;18592;49.708;10.900;2023-07-13T11:37:21;2.22;;;1.27;;
21432;SDS011;18592;49.708;10.900;2023-07-13T11:39:29;1.70;;;1.13;;
21432;SDS011;18592;49.708;10.900;2023-07-13T11:41:44;2.97;;;1.30;;
21432;SDS011;18592;49.708;10.900;2023-07-13T11:43:53;1.10;;;1.00;;
21432;SDS011;18592;49.708;10.900;2023-07-13T11:45:55;1.73;;;1.00;;
21432;SDS011;18592;49.708;10.900;2023-07-13T11:47:55;2.85;;;1.00;;
21432;SDS011;18592;49.708;10.900;2023-07-13T11:50:17;2.35;;;1.00;;
21432;SDS011;18592;49.708;10.900;2023-07-13T11:52:35;1.63;;;1.10;;
21432;SDS011;18592;49.708;10.900;2023-07-13T11:54:47;1.50;;;1.17;;
21432;SDS011;18592;49.708;10.900;2023-07-13T11:56:52;1.02;;;0.90;;
21432;SDS011;18592;49.708;10.900;2023-07-13T11:58:56;2.42;;;1.20;;
21432;SDS011;18592;49.708;10.900;2023-07-13T12:00:58;1.10;;;0.90;;
21432;SDS011;18592;49.708;10.900;2023-07-13T12:03:07;1.90;;;1.20;;
21432;SDS011;18592;49.708;10.900;2023-07-13T12:05:14;2.30;;;1.42;;
21432;SDS011;18592;49.708;10.900;2023-07-13T12:07:17;2.38;;;1.40;;
21432;SDS011;18592;49.708;10.900;2023-07-13T12:09:19;1.27;;;1.10;;
21432;SDS011;18592;49.708;10.900;2023-07-13T12:11:23;2.15;;;1.13;;
21432;SDS011;18592;49.708;10.900;2023-07-13T12:13:24;2.42;;;1.17;;
21432;SDS011;18592;49.708;10.900;2023-07-13T12:17:41;1.55;;;1.00;;
21432;SDS011;18592;49.708;10.900;2023-07-13T12:19:42;1.77;;;1.00;;
21432;SDS011;18592;49.708;10.900;2023-07-13T12:21:42;1.75;;;1.10;;
21432;SDS011;18592;49.708;10.900;2023-07-13T12:23:44;1.42;;;1.00;;
21432;SDS011;18592;49.708;10.900;2023-07-13T12:25:47;2.38;;;1.00;;
21432;SDS011;18592;49.708;10.900;2023-07-13T12:27:47;1.08;;;0.90;;
21432;SDS011;18592;49.708;10.900;2023-07-13T12:29:56;2.15;;;1.20;;
21432;SDS011;18592;49.708;10.900;2023-07-13T12:31:59;2.78;;;1.20;;
21432;SDS011;18592;49.708;10.900;2023-07-13T12:34:01;3.63;;;1.13;;
21432;SDS011;18592;49.708;10.900;2023-07-13T12:36:11;1.95;;;1.10;;
21432;SDS011;18592;49.708;10.900;2023-07-13T12:38:12;1.50;;;0.95;;
21432;SDS011;18592;49.708;10.900;2023-07-13T12:40:26;2.47;;;1.17;;
21432;SDS011;18592;49.708;10.900;2023-07-13T12:42:37;2.05;;;1.13;;
21432;SDS011;18592;49.708;10.900;2023-07-13T12:44:41;3.17;;;1.35;;
21432;SDS011;18592;49.708;10.900;2023-07-13T12:46:53;1.48;;;1.10;;
21432;SDS011;18592;49.708;10.900;2023-07-13T12:48:57;2.03;;;1.23;;
21432;SDS011;18592;49.708;10.900;2023-07-13T12:51:00;3.28;;;1.20;;
21432;SDS011;18592;49.708;10.900;2023-07-13T12:53:14;1.92;;;1.15;;
21432;SDS011;18592;49.708;10.900;2023-07-13T12:55:22;2.75;;;1.20;;
21432;SDS011;18592;49.708;10.900;2023-07-13T12:57:27;1.27;;;0.93;;
21432;SDS011;18592;49.708;10.900;2023-07-13T12:59:29;2.45;;;1.38;;
21432;SDS011;18592;49.708;10.900;2023-07-13T13:01:35;2.58;;;1.33;;
21432;SDS011;18592;49.708;10.900;2023-07-13T13:03:39;3.00;;;1.20;;
21432;SDS011;18592;49.708;10.900;2023-07-13T13:05:41;1.65;;;1.25;;
21432;SDS011;18592;49.708;10.900;2023-07-13T13:07:42;1.25;;;0.98;;
21432;SDS011;18592;49.708;10.900;2023-07-13T13:10:01;1.67;;;1.40;;
21432;SDS011;18592;49.708;10.900;2023-07-13T13:12:01;2.00;;;1.30;;
21432;SDS011;18592;49.708;10.900;2023-07-13T13:14:01;2.10;;;1.20;;
21432;SDS011;18592;49.708;10.900;2023-07-13T13:16:22;2.00;;;1.20;;
21432;SDS011;18592;49.708;10.900;2023-07-13T13:18:28;2.42;;;1.30;;
21432;SDS011;18592;49.708;10.900;2023-07-13T13:20:29;1.50;;;1.30;;
21432;SDS011;18592;49.708;10.900;2023-07-13T13:22:29;1.88;;;1.17;;
21432;SDS011;18592;49.708;10.900;2023-07-13T13:24:32;1.90;;;1.20;;
21432;SDS011;18592;49.708;10.900;2023-07-13T13:26:32;2.45;;;1.23;;
21432;SDS011;18592;49.708;10.900;2023-07-13T13:28:34;1.52;;;1.10;;